Time;durP1;ratioP1;P1;durP2;ratioP2;P2;SDS_P1;SDS_P2;PMS_P1;PMS_P2;Temp;Humidity;BMP_temperature;BMP_pressure;BME280_temperature;BME280_humidity;BME280_pressure;Samples;Min_cycle;Max_cycle;Signal;HPM_P1;HPM_P2
2021/01/29 00:02:06;;;;;;;4.35;2.15;;;10.00;99.90;;;;;;5036017;28;20151;-76
2021/01/29 00:04:32;;;;;;;5.53;2.13;;;10.10;99.90;;;;;;5035187;28;20033;-76
2021/01/29 00:06:58;;;;;;;5.18;2.10;;;10.10;99.90;;;;;;5035785;28;20045;-75
2021/01/29 00:09:24;;;;;;;3.88;2.28;;;10.10;99.90;;;;;;5035623;28;20037;-76
2021/01/29 00:11:50;;;;;;;2.10;1.70;;;10.10;99.90;;;;;;5035318;28;20041;-76
2021/01/29 00:14:16;;;;;;;4.20;2.08;;;10.10;99.90;;;;;;5034940;28;20056;-76
2021/01/29 00:16:41;;;;;;;72.53;46.80;;;10.10;99.90;;;;;;5035422;28;20037;-75
2021/01/29 00:19:08;;;;;;;12.07;8.02;;;10.10;99.90;;;;;;5035830;28;20042;-76
2021/01/29 00:21:34;;;;;;;10.65;5.93;;;10.20;99.90;;;;;;5035158;28;20041;-76
2021/01/29 00:24:00;;;;;;;11.93;6.68;;;10.20;99.90;;;;;;5034889;28;20052;-76
2021/01/29 00:26:25;;;;;;;12.35;6.85;;;10.20;99.90;;;;;;5034584;28;20505;-76
2021/01/29 00:28:51;;;;;;;4.00;1.90;;;10.20;99.90;;;;;;5034903;28;20099;-76
2021/01/29 00:31:17;;;;;;;4.93;2.17;;;10.20;99.90;;;;;;5034524;28;20038;-76
2021/01/29 00:33:43;;;;;;;3.03;2.15;;;10.20;99.90;;;;;;5034628;28;20083;-76
2021/01/29 00:36:09;;;;;;;2.95;2.03;;;10.30;99.90;;;;;;5035105;28;20038;-76
2021/01/29 00:38:35;;;;;;;2.33;1.88;;;10.50;99.90;;;;;;5035282;28;20045;-76
2021/01/29 00:41:00;;;;;;;5.43;2.25;;;10.50;99.90;;;;;;5035429;28;20155;-76
2021/01/29 00:43:26;;;;;;;5.38;2.03;;;10.30;99.90;;;;;;5033632;28;20037;-76
2021/01/29 00:45:52;;;;;;;3.15;1.88;;;10.40;99.90;;;;;;5035062;28;20045;-76
2021/01/29 00:48:18;;;;;;;16.15;9.70;;;10.50;99.90;;;;;;5034929;28;20041;-76
2021/01/29 00:50:44;;;;;;;3.83;2.60;;;10.50;99.90;;;;;;5034912;28;20034;-76
2021/01/29 00:53:10;;;;;;;5.47;2.90;;;10.50;99.90;;;;;;5034736;28;20121;-76
2021/01/29 00:55:37;;;;;;;6.50;3.50;;;10.50;99.90;;;;;;5034821;28;20041;-76
2021/01/29 00:58:03;;;;;;;7.35;2.45;;;10.60;99.90;;;;;;5034320;28;20041;-76
2021/01/29 01:00:29;;;;;;;9.18;3.70;;;10.60;99.90;;;;;;5034550;28;20069;-76
2021/01/29 01:02:55;;;;;;;9.43;3.60;;;10.60;99.90;;;;;;5034307;28;20115;-76
2021/01/29 01:05:23;;;;;;;5.72;2.10;;;10.60;99.90;;;;;;5034937;28;20065;-76
2021/01/29 01:07:49;;;;;;;3.65;2.35;;;10.50;99.90;;;;;;5034952;28;20041;-75
2021/01/29 01:10:17;;;;;;;6.05;2.92;;;10.60;99.90;;;;;;5034270;28;20112;-76
2021/01/29 01:12:42;;;;;;;5.30;2.72;;;10.60;99.90;;;;;;5034431;28;20056;-76
2021/01/29 01:15:19;;;;;;;7.45;3.95;;;10.70;99.90;;;;;;5034446;28;20485;-76
2021/01/29 01:17:45;;;;;;;10.25;4.07;;;10.80;99.90;;;;;;5035135;28;20043;-75
2021/01/29 01:20:16;;;;;;;7.07;3.20;;;10.70;99.90;;;;;;5034511;28;20504;-76
2021/01/29 01:22:42;;;;;;;8.73;3.92;;;10.70;99.90;;;;;;5034553;28;20050;-76
2021/01/29 01:25:09;;;;;;;4.40;2.83;;;10.80;99.90;;;;;;5033339;28;20063;-76
2021/01/29 01:27:34;;;;;;;6.15;3.35;;;10.80;99.90;;;;;;5018860;28;20053;-76
2021/01/29 01:30:00;;;;;;;26.60;20.05;;;10.80;99.90;;;;;;5016980;28;20407;-76
2021/01/29 01:32:26;;;;;;;6.32;4.30;;;10.70;99.90;;;;;;5034988;28;20049;-76
2021/01/29 01:34:52;;;;;;;54.20;31.88;;;10.70;99.90;;;;;;5034502;28;20492;-76
2021/01/29 01:37:18;;;;;;;6.60;3.17;;;10.60;99.90;;;;;;5034440;28;20033;-76
2021/01/29 01:39:43;;;;;;;17.70;9.80;;;10.60;99.90;;;;;;5034619;28;20045;-76
2021/01/29 01:42:09;;;;;;;5.18;2.70;;;10.60;99.90;;;;;;5034139;28;20044;-76
2021/01/29 01:44:41;;;;;;;5.22;2.15;;;10.60;99.90;;;;;;5034184;28;20072;-76
2021/01/29 01:47:18;;;;;;;3.95;2.25;;;10.60;99.90;;;;;;5034703;28;20041;-76
2021/01/29 01:49:45;;;;;;;6.75;2.50;;;10.60;99.90;;;;;;5034645;28;20029;-76
2021/01/29 01:52:36;;;;;;;5.82;3.20;;;10.50;99.90;;;;;;5034281;28;20069;-76
2021/01/29 01:55:09;;;;;;;5.05;3.00;;;10.40;99.90;;;;;;5033176;28;20042;-76
2021/01/29 01:57:37;;;;;;;4.18;2.70;;;10.40;99.90;;;;;;5034119;28;20048;-76
2021/01/29 02:00:10;;;;;;;5.50;2.75;;;10.30;99.90;;;;;;5034374;28;20251;-76
2021/01/29 02:02:38;;;;;;;3.15;2.70;;;10.40;99.90;;;;;;5034355;28;20049;-76
2021/01/29 02:05:09;;;;;;;5.55;3.78;;;10.40;99.90;;;;;;5032659;28;20045;-76
2021/01/29 02:07:38;;;;;;;5.85;3.50;;;10.40;99.90;;;;;;5033010;28;20049;-76
2021/01/29 02:10:05;;;;;;;4.38;2.42;;;10.40;99.90;;;;;;5032036;28;20037;-76
2021/01/29 02:12:31;;;;;;;7.97;2.67;;;10.50;99.90;;;;;;5032041;28;20523;-76
2021/01/29 02:14:57;;;;;;;5.47;2.80;;;10.50;99.90;;;;;;5032350;28;20033;-76
2021/01/29 02:17:35;;;;;;;6.28;2.60;;;10.60;99.90;;;;;;5031550;28;20124;-76
2021/01/29 02:20:40;;;;;;;3.97;2.50;;;10.70;99.90;;;;;;5032141;28;20053;-76
2021/01/29 02:23:43;;;;;;;4.15;2.30;;;10.80;99.90;;;;;;5031760;28;20077;-76
2021/01/29 02:26:32;;;;;;;4.05;2.60;;;10.70;99.90;;;;;;5031801;28;20037;-76
2021/01/29 02:29:17;;;;;;;2.88;2.30;;;10.70;99.90;;;;;;5031662;28;20037;-76
2021/01/29 02:31:48;;;;;;;3.22;2.05;;;10.70;99.90;;;;;;5031128;28;20037;-75
2021/01/29 02:34:17;;;;;;;2.30;1.83;;;10.60;99.90;;;;;;5031199;28;20088;-76
2021/01/29 02:37:05;;;;;;;2.72;2.08;;;10.70;99.90;;;;;;5031481;28;20385;-76
2021/01/29 02:39:59;;;;;;;3.88;1.90;;;10.70;99.90;;;;;;5031925;28;20092;-76
2021/01/29 02:42:46;;;;;;;3.85;2.15;;;10.80;99.90;;;;;;5031045;28;20123;-76
2021/01/29 02:45:18;;;;;;;2.58;2.05;;;10.80;99.90;;;;;;5031536;28;20042;-76
2021/01/29 02:48:15;;;;;;;5.32;3.08;;;10.90;99.90;;;;;;5031608;28;20038;-76
2021/01/29 02:50:58;;;;;;;5.57;2.70;;;10.80;99.90;;;;;;5031389;28;20079;-76
2021/01/29 02:54:00;;;;;;;4.75;2.60;;;10.90;99.90;;;;;;5031681;28;20500;-76
2021/01/29 02:57:00;;;;;;;4.03;1.75;;;10.90;99.90;;;;;;5031318;28;20046;-76
2021/01/29 02:59:52;;;;;;;4.07;2.35;;;11.10;99.90;;;;;;4997330;28;20048;-76
2021/01/29 03:02:33;;;;;;;16.75;9.77;;;11.20;99.90;;;;;;5031291;28;20041;-76
2021/01/29 03:05:04;;;;;;;4.18;1.98;;;11.10;99.90;;;;;;5031352;28;20061;-76
2021/01/29 03:08:08;;;;;;;3.10;1.60;;;11.10;99.90;;;;;;5033461;28;20068;-76
2021/01/29 03:10:49;;;;;;;4.43;1.75;;;11.20;99.90;;;;;;5027257;28;20041;-76
2021/01/29 03:13:19;;;;;;;;;;;11.30;99.90;;;;;;5035112;28;20136;-76
2021/01/29 03:15:53;;;;;;;2.20;1.58;;;11.30;99.90;;;;;;5034838;28;20356;-75
2021/01/29 03:18:46;;;;;;;1.42;1.27;;;11.40;99.90;;;;;;5034893;28;20523;-76
2021/01/29 03:21:16;;;;;;;3.17;1.50;;;11.40;99.90;;;;;;5033982;28;20120;-76
2021/01/29 03:23:49;;;;;;;2.67;1.48;;;11.50;99.90;;;;;;5034476;28;20056;-76
2021/01/29 03:26:37;;;;;;;2.67;1.50;;;11.50;99.90;;;;;;5034471;28;20037;-76
2021/01/29 03:29:10;;;;;;;3.20;2.38;;;11.80;99.90;;;;;;5035241;28;20047;-76
2021/01/29 03:31:40;;;;;;;6.80;2.80;;;11.50;99.90;;;;;;5034665;28;20037;-76
2021/01/29 03:34:24;;;;;;;3.63;1.92;;;11.10;99.90;;;;;;5033572;28;20037;-76
2021/01/29 03:37:03;;;;;;;1.92;1.35;;;11.10;99.90;;;;;;5034495;28;20120;-76
2021/01/29 03:39:37;;;;;;;3.05;1.10;;;11.10;99.90;;;;;;5034503;28;20497;-76
2021/01/29 03:42:27;;;;;;;2.67;1.27;;;11.10;99.90;;;;;;5034289;28;20535;-76
2021/01/29 03:45:16;;;;;;;3.07;1.17;;;11.00;99.90;;;;;;5034397;28;20037;-76
2021/01/29 03:48:20;;;;;;;2.65;1.60;;;11.00;99.90;;;;;;5031216;28;20186;-76
2021/01/29 03:51:10;;;;;;;2.75;1.88;;;11.00;99.90;;;;;;5030001;28;20060;-76
2021/01/29 03:53:44;;;;;;;4.35;1.80;;;10.90;99.90;;;;;;5034975;28;20029;-76
2021/01/29 03:56:23;;;;;;;3.20;1.75;;;10.90;99.90;;;;;;5034255;28;20558;-76
2021/01/29 03:59:07;;;;;;;2.30;2.10;;;10.90;99.90;;;;;;5033954;28;20416;-76
2021/01/29 04:01:47;;;;;;;3.40;2.15;;;10.80;99.90;;;;;;5033969;28;20132;-76
2021/01/29 04:04:32;;;;;;;3.17;2.23;;;10.90;99.90;;;;;;5033894;28;20057;-76
2021/01/29 04:06:58;;;;;;;4.13;2.30;;;10.80;99.90;;;;;;5034007;28;20552;-76
2021/01/29 04:09:44;;;;;;;4.82;3.10;;;10.80;99.90;;;;;;5033993;28;20041;-75
2021/01/29 04:12:15;;;;;;;3.88;2.20;;;10.80;99.90;;;;;;5033722;28;20099;-76
2021/01/29 04:15:10;;;;;;;2.85;1.92;;;10.80;99.90;;;;;;5034153;28;20053;-76
2021/01/29 04:17:51;;;;;;;4.57;2.10;;;10.70;99.90;;;;;;5025683;28;20111;-76
2021/01/29 04:20:22;;;;;;;;;;;10.70;99.90;;;;;;5034494;28;20053;-76
2021/01/29 04:22:48;;;;;;;;;;;10.70;99.90;;;;;;5034413;28;19910;-76
2021/01/29 04:25:26;;;;;;;4.00;2.10;;;10.70;99.90;;;;;;5034216;28;19909;-76
2021/01/29 04:27:55;;;;;;;6.03;4.82;;;10.70;99.90;;;;;;5033826;28;20037;-76
2021/01/29 04:30:31;;;;;;;4.25;3.85;;;10.60;99.90;;;;;;5033274;28;20111;-76
2021/01/29 04:33:09;;;;;;;3.70;2.83;;;10.60;99.90;;;;;;5033488;28;20037;-75
2021/01/29 04:35:38;;;;;;;3.60;2.70;;;10.60;99.90;;;;;;5034462;28;20045;-76
2021/01/29 04:38:22;;;;;;;2.83;2.00;;;10.60;99.90;;;;;;5033747;28;20037;-76
2021/01/29 04:40:48;;;;;;;2.60;2.40;;;10.50;99.90;;;;;;5033483;28;20129;-76
2021/01/29 04:44:00;;;;;;;2.65;1.80;;;10.60;99.90;;;;;;5033522;28;20112;-76
2021/01/29 04:46:35;;;;;;;1.70;1.52;;;10.50;99.90;;;;;;5011458;28;20038;-76
2021/01/29 04:49:19;;;;;;;3.45;1.65;;;10.50;99.90;;;;;;5011445;28;20070;-76
2021/01/29 04:51:55;;;;;;;1.55;1.45;;;10.50;99.90;;;;;;5026369;28;20052;-76
2021/01/29 04:54:55;;;;;;;2.92;1.70;;;10.60;99.90;;;;;;5033405;28;20034;-76
2021/01/29 04:57:43;;;;;;;2.83;2.20;;;10.60;99.90;;;;;;5033126;28;20064;-76
2021/01/29 05:00:22;;;;;;;1.48;1.30;;;10.60;99.90;;;;;;5030436;28;20033;-76
2021/01/29 05:03:15;;;;;;;1.33;1.17;;;10.60;99.90;;;;;;5033556;28;20034;-76
2021/01/29 05:05:56;;;;;;;1.52;1.42;;;10.70;99.90;;;;;;5033189;28;20065;-76
2021/01/29 05:08:31;;;;;;;1.02;0.93;;;10.70;99.90;;;;;;5035333;28;20570;-77
2021/01/29 05:11:18;;;;;;;1.38;0.70;;;10.80;99.90;;;;;;5033432;28;20068;-76
2021/01/29 05:14:30;;;;;;;0.93;0.65;;;10.90;99.90;;;;;;5032579;28;20045;-76
2021/01/29 05:17:10;;;;;;;0.73;0.60;;;10.90;99.90;;;;;;5022851;28;20037;-76
2021/01/29 05:20:17;;;;;;;0.40;0.40;;;10.90;99.90;;;;;;5032861;28;20041;-76
2021/01/29 05:23:04;;;;;;;0.57;0.50;;;11.00;99.90;;;;;;5012801;28;20129;-76
2021/01/29 05:26:05;;;;;;;1.25;0.80;;;11.00;99.90;;;;;;5020413;28;20053;-76
2021/01/29 05:28:34;;;;;;;;;;;11.00;99.90;;;;;;5028054;28;20076;-76
2021/01/29 05:31:25;;;;;;;0.65;0.40;;;11.10;99.90;;;;;;5031713;28;19909;-75
2021/01/29 05:34:19;;;;;;;0.20;0.20;;;11.30;99.90;;;;;;5032830;28;20073;-73
2021/01/29 05:37:08;;;;;;;0.10;0.10;;;11.40;99.90;;;;;;5032515;28;20037;-76
2021/01/29 05:40:02;;;;;;;0.30;0.30;;;11.30;99.90;;;;;;5032429;28;20041;-76
2021/01/29 05:42:51;;;;;;;0.20;0.20;;;11.30;99.90;;;;;;5032307;28;20038;-76
2021/01/29 05:45:42;;;;;;;0.20;0.20;;;11.30;99.90;;;;;;5032773;28;20041;-77
2021/01/29 05:48:19;;;;;;;0.17;0.17;;;11.40;99.90;;;;;;5032271;28;20033;-76
2021/01/29 05:51:05;;;;;;;0.52;0.20;;;11.40;99.90;;;;;;5032307;28;20033;-76
2021/01/29 05:53:45;;;;;;;0.20;0.20;;;11.60;99.90;;;;;;5032075;28;20128;-75
2021/01/29 05:56:22;;;;;;;0.20;0.20;;;11.60;99.90;;;;;;5032276;28;20033;-75
2021/01/29 05:59:08;;;;;;;0.30;0.30;;;11.50;99.90;;;;;;5031815;28;20060;-75
2021/01/29 06:01:36;;;;;;;0.20;0.20;;;11.50;99.90;;;;;;5030077;28;20527;-75
2021/01/29 06:04:29;;;;;;;0.30;0.30;;;11.60;99.90;;;;;;5030993;28;20045;-75
2021/01/29 06:07:06;;;;;;;0.45;0.40;;;11.60;99.90;;;;;;5031026;28;20041;-75
2021/01/29 06:09:35;;;;;;;0.57;0.40;;;11.70;99.90;;;;;;5031085;28;20063;-75
2021/01/29 06:12:06;;;;;;;0.40;0.40;;;11.60;99.90;;;;;;5031461;28;20033;-75
2021/01/29 06:15:09;;;;;;;0.70;0.70;;;11.50;99.90;;;;;;5031917;28;20126;-75
2021/01/29 06:17:52;;;;;;;2.35;1.85;;;11.50;99.90;;;;;;5031549;28;20041;-75
2021/01/29 06:20:40;;;;;;;1.05;0.90;;;11.50;99.90;;;;;;5027890;28;20116;-76
2021/01/29 06:23:36;;;;;;;1.70;1.52;;;11.50;99.90;;;;;;5031919;28;20382;-74
2021/01/29 06:26:29;;;;;;;1.30;1.20;;;11.40;99.90;;;;;;5016413;28;20033;-75
2021/01/29 06:29:20;;;;;;;1.48;1.38;;;11.40;99.90;;;;;;5011809;28;20049;-75
2021/01/29 06:32:05;;;;;;;1.00;0.90;;;11.50;99.90;;;;;;5012102;28;20164;-75
2021/01/29 06:34:58;;;;;;;1.80;1.65;;;11.70;99.90;;;;;;5033103;28;20033;-75
2021/01/29 06:37:39;;;;;;;3.78;2.67;;;11.60;99.90;;;;;;5020410;28;20578;-74
2021/01/29 06:40:14;;;;;;;2.20;1.70;;;11.70;99.90;;;;;;5031186;28;20558;-74
2021/01/29 06:43:08;;;;;;;1.58;1.15;;;11.60;99.90;;;;;;5035893;28;20037;-74
2021/01/29 06:46:16;;;;;;;0.80;0.80;;;11.60;99.90;;;;;;5033859;28;20045;-74
2021/01/29 06:49:06;;;;;;;0.70;0.70;;;11.60;99.90;;;;;;5032162;28;20391;-75
2021/01/29 06:51:56;;;;;;;1.73;1.63;;;11.60;99.90;;;;;;5037068;28;20182;-74
2021/01/29 06:54:43;;;;;;;1.67;1.58;;;11.80;99.90;;;;;;5055119;28;20033;-75
2021/01/29 06:57:21;;;;;;;1.25;1.05;;;11.80;99.90;;;;;;5055402;28;20047;-74
2021/01/29 07:00:15;;;;;;;2.65;2.00;;;11.80;99.90;;;;;;5055533;28;20067;-74
2021/01/29 07:03:12;;;;;;;3.45;2.60;;;11.70;99.90;;;;;;5050719;28;20092;-75
2021/01/29 07:05:52;;;;;;;3.45;1.30;;;11.70;99.90;;;;;;5035377;28;20033;-75
2021/01/29 07:08:57;;;;;;;2.78;2.38;;;11.70;99.90;;;;;;5036116;28;20037;-75
2021/01/29 07:11:42;;;;;;;1.65;1.55;;;11.90;99.90;;;;;;5003555;28;20033;-75
2021/01/29 07:14:24;;;;;;;0.77;0.77;;;12.00;99.90;;;;;;5034778;28;20049;-74
2021/01/29 07:16:55;;;;;;;1.10;1.00;;;12.00;99.90;;;;;;5035016;28;20035;-75
2021/01/29 07:19:36;;;;;;;1.48;1.00;;;11.80;99.90;;;;;;5052017;28;20045;-75
2021/01/29 07:22:29;;;;;;;1.42;1.33;;;11.80;99.90;;;;;;5028825;28;20531;-75
2021/01/29 07:25:29;;;;;;;1.48;1.38;;;11.80;99.90;;;;;;5034915;28;20120;-74
2021/01/29 07:28:18;;;;;;;1.20;0.85;;;11.80;99.90;;;;;;5034756;28;20094;-75
2021/01/29 07:30:50;;;;;;;2.92;2.17;;;11.90;99.90;;;;;;5034603;28;20496;-74
2021/01/29 07:33:31;;;;;;;1.20;0.80;;;11.80;99.90;;;;;;5035221;28;20069;-75
2021/01/29 07:36:34;;;;;;;2.08;1.52;;;11.90;99.90;;;;;;5034803;28;20099;-74
2021/01/29 07:39:18;;;;;;;1.95;1.48;;;11.90;99.90;;;;;;5024133;28;20045;-75
2021/01/29 07:41:58;;;;;;;0.75;0.63;;;11.90;99.90;;;;;;5053121;28;20076;-75
2021/01/29 07:44:48;;;;;;;0.98;0.57;;;11.70;99.90;;;;;;5033330;28;20033;-74
2021/01/29 07:47:23;;;;;;;0.65;0.65;;;11.50;99.90;;;;;;5033260;28;20045;-74
2021/01/29 07:50:23;;;;;;;0.40;0.40;;;11.70;99.90;;;;;;5033000;28;20063;-74
2021/01/29 07:53:04;;;;;;;0.40;0.40;;;11.90;99.90;;;;;;5013922;28;20125;-74
2021/01/29 07:55:58;;;;;;;1.10;1.05;;;12.00;99.90;;;;;;5026044;28;20064;-75
2021/01/29 07:58:29;;;;;;;0.50;0.50;;;12.10;99.90;;;;;;5025647;28;20185;-75
2021/01/29 08:01:20;;;;;;;0.70;0.57;;;12.20;99.90;;;;;;5014208;28;20057;-75
2021/01/29 08:04:23;;;;;;;0.50;0.50;;;12.10;99.90;;;;;;5013218;28;20121;-75
2021/01/29 08:06:59;;;;;;;0.50;0.50;;;12.10;99.90;;;;;;5019401;28;20064;-75
2021/01/29 08:09:35;;;;;;;1.75;0.50;;;12.30;99.90;;;;;;5033754;28;20116;-75
2021/01/29 08:12:06;;;;;;;3.35;0.75;;;12.40;99.90;;;;;;5033357;28;20595;-75
2021/01/29 08:14:46;;;;;;;1.65;0.40;;;12.30;99.90;;;;;;5033724;28;20082;-74
2021/01/29 08:18:09;;;;;;;0.43;0.43;;;12.10;99.90;;;;;;5033229;28;20068;-74
2021/01/29 08:20:46;;;;;;;0.40;0.40;;;12.00;99.90;;;;;;4993270;28;20196;-75
2021/01/29 08:23:22;;;;;;;0.65;0.60;;;12.00;99.90;;;;;;4972271;28;20069;-74
2021/01/29 08:26:18;;;;;;;0.73;0.73;;;12.20;99.90;;;;;;4997655;28;20034;-74
2021/01/29 08:28:54;;;;;;;1.33;1.10;;;12.10;99.90;;;;;;5014021;28;20049;-75
2021/01/29 08:31:29;;;;;;;0.73;0.63;;;12.00;99.90;;;;;;5020286;28;20111;-75
2021/01/29 08:34:28;;;;;;;0.63;0.55;;;12.00;99.90;;;;;;5040391;28;20072;-75
2021/01/29 08:37:21;;;;;;;1.65;0.60;;;12.10;99.90;;;;;;5023750;28;20050;-75
2021/01/29 08:39:57;;;;;;;2.38;1.02;;;12.30;99.90;;;;;;5032038;28;20057;-75
2021/01/29 08:42:35;;;;;;;1.33;1.00;;;12.40;99.90;;;;;;5030851;28;20041;-75
2021/01/29 08:45:14;;;;;;;1.48;0.82;;;12.50;99.90;;;;;;5030533;28;20127;-75
2021/01/29 08:48:04;;;;;;;1.38;1.00;;;12.50;99.90;;;;;;5031543;28;20472;-76
2021/01/29 08:50:39;;;;;;;2.97;1.80;;;12.60;99.90;;;;;;5038822;28;20041;-76
2021/01/29 08:53:44;;;;;;;1.90;1.30;;;12.70;99.90;;;;;;5033104;28;20042;-75
2021/01/29 08:56:35;;;;;;;3.55;2.20;;;12.60;99.90;;;;;;5031470;28;20515;-76
2021/01/29 08:59:11;;;;;;;1.25;0.85;;;12.60;99.90;;;;;;5032369;28;20044;-75
2021/01/29 09:01:55;;;;;;;2.08;1.10;;;12.50;99.90;;;;;;5031706;28;20033;-76
2021/01/29 09:04:40;;;;;;;2.85;1.00;;;12.50;99.90;;;;;;5032334;28;20045;-75
2021/01/29 09:07:28;;;;;;;3.47;0.90;;;12.60;99.90;;;;;;5032440;28;20041;-75
2021/01/29 09:10:13;;;;;;;2.08;1.00;;;12.60;99.90;;;;;;5032319;28;20127;-75
2021/01/29 09:12:41;;;;;;;2.50;1.23;;;12.70;99.90;;;;;;5032472;28;20508;-75
2021/01/29 09:15:34;;;;;;;4.07;0.90;;;12.70;99.90;;;;;;5031804;28;20041;-75
2021/01/29 09:18:16;;;;;;;4.00;0.98;;;12.90;99.90;;;;;;5031755;28;20037;-75
2021/01/29 09:20:47;;;;;;;3.97;1.50;;;12.90;99.90;;;;;;5032304;28;20045;-75
2021/01/29 09:23:35;;;;;;;4.10;1.30;;;12.60;99.90;;;;;;5032107;28;20069;-74
2021/01/29 09:26:17;;;;;;;3.92;1.10;;;12.40;99.90;;;;;;5031984;28;20116;-75
2021/01/29 09:28:45;;;;;;;4.90;1.70;;;12.40;99.90;;;;;;5031337;28;20045;-75
2021/01/29 09:31:27;;;;;;;3.13;1.02;;;12.30;99.90;;;;;;5031639;28;20060;-74
2021/01/29 09:34:29;;;;;;;2.65;0.82;;;12.40;99.90;;;;;;5030902;28;20120;-75
2021/01/29 09:37:01;;;;;;;5.50;2.00;;;12.50;99.90;;;;;;5043146;28;20029;-75
2021/01/29 09:39:40;;;;;;;5.68;1.95;;;12.50;99.90;;;;;;5043163;28;20120;-75
2021/01/29 09:42:24;;;;;;;5.18;1.30;;;12.40;99.90;;;;;;5043420;28;20046;-75
2021/01/29 09:45:06;;;;;;;6.35;1.63;;;12.60;99.90;;;;;;5031452;28;20079;-75
2021/01/29 09:47:42;;;;;;;4.07;1.20;;;12.50;99.90;;;;;;5031351;28;20048;-75
2021/01/29 09:50:12;;;;;;;7.78;2.10;;;12.40;99.90;;;;;;5031022;28;20128;-75
2021/01/29 09:53:05;;;;;;;4.22;0.82;;;12.40;99.90;;;;;;5031909;28;20045;-75
2021/01/29 09:56:00;;;;;;;6.35;1.17;;;12.40;99.90;;;;;;5037323;28;20039;-75
2021/01/29 09:58:41;;;;;;;9.82;1.38;;;12.30;99.90;;;;;;5031761;28;20120;-75
2021/01/29 10:01:06;;;;;;;;;;;12.40;99.90;;;;;;5031745;28;20049;-74
2021/01/29 10:03:54;;;;;;;6.10;1.50;;;12.40;99.90;;;;;;5031570;28;19959;-75
2021/01/29 10:06:22;;;;;;;8.02;1.70;;;12.30;99.90;;;;;;5031193;28;20048;-75
2021/01/29 10:09:01;;;;;;;4.57;1.25;;;12.40;99.90;;;;;;5026332;28;20037;-75
2021/01/29 10:11:42;;;;;;;5.65;1.30;;;12.30;99.90;;;;;;5031564;28;20037;-75
2021/01/29 10:14:18;;;;;;;7.18;1.33;;;12.30;99.90;;;;;;5029496;28;20052;-75
2021/01/29 10:17:06;;;;;;;3.08;1.00;;;12.20;99.90;;;;;;5024812;28;20037;-75
2021/01/29 10:19:46;;;;;;;4.13;1.23;;;12.30;99.90;;;;;;5034733;28;20071;-76
2021/01/29 10:22:57;;;;;;;17.30;7.10;;;12.30;99.90;;;;;;5051269;28;20036;-76
2021/01/29 10:25:41;;;;;;;8.93;2.25;;;12.30;99.90;;;;;;5051439;28;20044;-76
2021/01/29 10:28:38;;;;;;;8.63;3.35;;;12.30;99.90;;;;;;5030593;28;20129;-76
2021/01/29 10:31:08;;;;;;;8.13;2.80;;;12.30;99.90;;;;;;5030630;28;20037;-76
2021/01/29 10:33:37;;;;;;;9.85;2.35;;;12.40;99.90;;;;;;5030648;28;20064;-76
2021/01/29 10:36:11;;;;;;;9.48;2.33;;;12.50;99.90;;;;;;5031358;28;20047;-76
2021/01/29 10:38:55;;;;;;;6.57;1.88;;;12.50;99.90;;;;;;5019745;28;20072;-75
2021/01/29 10:41:36;;;;;;;6.85;1.88;;;12.60;99.90;;;;;;5025977;28;20438;-76
2021/01/29 10:44:19;;;;;;;7.20;2.25;;;12.70;99.90;;;;;;5028340;28;20029;-76
2021/01/29 10:47:15;;;;;;;5.03;1.35;;;12.70;99.90;;;;;;5029247;28;20516;-76
2021/01/29 10:50:12;;;;;;;10.10;2.63;;;12.80;99.90;;;;;;5029107;28;20039;-76
2021/01/29 10:52:39;;;;;;;7.53;1.83;;;12.80;99.90;;;;;;5032983;28;20037;-76
2021/01/29 10:55:21;;;;;;;12.75;2.50;;;12.90;99.90;;;;;;5032473;28;20068;-76
2021/01/29 10:58:01;;;;;;;9.48;2.08;;;12.90;99.90;;;;;;5031222;28;20500;-75
2021/01/29 11:00:31;;;;;;;8.63;2.72;;;12.90;99.90;;;;;;5031833;28;20076;-76
2021/01/29 11:03:05;;;;;;;4.75;1.73;;;13.00;99.90;;;;;;5032884;28;20045;-75
2021/01/29 11:05:34;;;;;;;7.60;2.05;;;13.10;99.90;;;;;;5032667;28;20056;-75
2021/01/29 11:08:23;;;;;;;5.65;1.70;;;13.10;99.90;;;;;;5031720;28;20046;-76
2021/01/29 11:11:00;;;;;;;7.57;1.75;;;13.10;99.90;;;;;;5030206;28;20128;-76
2021/01/29 11:13:51;;;;;;;13.80;3.30;;;13.10;99.90;;;;;;5015195;28;20050;-76
2021/01/29 11:16:21;;;;;;;7.55;2.05;;;13.10;99.90;;;;;;5032575;28;20030;-76
2021/01/29 11:18:58;;;;;;;8.02;2.08;;;13.10;99.90;;;;;;5032291;28;20408;-76
2021/01/29 11:21:29;;;;;;;6.90;2.47;;;13.10;99.90;;;;;;5033129;28;20042;-75
2021/01/29 11:24:18;;;;;;;5.88;1.85;;;13.20;99.90;;;;;;5033203;28;20041;-75
2021/01/29 11:26:54;;;;;;;9.02;2.60;;;13.10;99.90;;;;;;5045098;28;20033;-75
2021/01/29 11:29:42;;;;;;;6.45;1.58;;;13.10;99.90;;;;;;5036163;28;20043;-75
2021/01/29 11:32:19;;;;;;;6.22;2.38;;;13.10;99.90;;;;;;5049692;28;20060;-75
2021/01/29 11:34:46;;;;;;;10.77;2.17;;;13.10;99.90;;;;;;5036601;28;20033;-75
2021/01/29 11:37:29;;;;;;;8.02;2.60;;;13.00;99.90;;;;;;5036388;28;20048;-75
2021/01/29 11:40:14;;;;;;;8.73;2.38;;;13.00;99.90;;;;;;5035805;28;20045;-75
2021/01/29 11:43:16;;;;;;;8.00;2.58;;;13.00;99.90;;;;;;5036513;28;20128;-75
2021/01/29 11:45:49;;;;;;;5.57;2.25;;;12.90;99.90;;;;;;5036191;28;20041;-75
2021/01/29 11:48:14;;;;;;;5.18;1.70;;;12.90;99.90;;;;;;5036301;28;20049;-75
2021/01/29 11:50:51;;;;;;;8.50;2.33;;;13.00;99.90;;;;;;5031224;28;20083;-75
2021/01/29 11:53:26;;;;;;;9.43;3.22;;;13.00;99.70;;;;;;5030468;28;20515;-75
2021/01/29 11:55:58;;;;;;;8.50;2.85;;;12.90;99.90;;;;;;5033411;28;20036;-75
2021/01/29 11:58:33;;;;;;;4.00;1.35;;;12.90;99.50;;;;;;5031864;28;20098;-75
2021/01/29 12:01:03;;;;;;;8.43;1.60;;;12.90;99.60;;;;;;5033421;28;20045;-75
2021/01/29 12:03:48;;;;;;;6.72;1.55;;;12.90;99.30;;;;;;5014949;28;20592;-74
2021/01/29 12:06:35;;;;;;;7.38;1.58;;;13.00;99.90;;;;;;5021915;28;20077;-75
2021/01/29 12:09:09;;;;;;;6.47;1.65;;;13.10;99.50;;;;;;5046132;28;20320;-74
2021/01/29 12:12:04;;;;;;;7.72;2.15;;;13.00;98.80;;;;;;5031789;28;20437;-75
2021/01/29 12:14:48;;;;;;;8.30;2.30;;;13.00;99.90;;;;;;5026542;28;20519;-75
2021/01/29 12:17:18;;;;;;;10.55;2.75;;;13.10;99.30;;;;;;5027860;28;20509;-75
2021/01/29 12:19:46;;;;;;;7.83;1.93;;;13.10;98.60;;;;;;5030707;28;20049;-75
2021/01/29 12:22:27;;;;;;;8.05;1.95;;;13.00;97.90;;;;;;5033720;28;20295;-75
2021/01/29 12:25:21;;;;;;;10.43;2.83;;;13.10;97.80;;;;;;5033512;28;20037;-76
2021/01/29 12:27:51;;;;;;;6.10;1.98;;;13.10;97.00;;;;;;5032707;28;20042;-76
2021/01/29 12:30:26;;;;;;;7.05;1.77;;;13.10;96.80;;;;;;5031968;28;20534;-75
2021/01/29 12:33:21;;;;;;;7.70;2.13;;;13.10;97.30;;;;;;5031346;28;20045;-76
2021/01/29 12:36:00;;;;;;;8.43;2.42;;;13.20;97.30;;;;;;5032848;28;20039;-75
2021/01/29 12:38:40;;;;;;;9.02;2.20;;;13.10;95.40;;;;;;5032409;28;20100;-75
2021/01/29 12:41:14;;;;;;;8.18;1.90;;;13.20;95.10;;;;;;5033509;28;20041;-75
2021/01/29 12:44:11;;;;;;;8.63;1.95;;;13.20;95.30;;;;;;5032278;28;20037;-75
2021/01/29 12:46:45;;;;;;;10.40;2.00;;;13.20;95.40;;;;;;5033272;28;20040;-74
2021/01/29 12:49:23;;;;;;;10.10;1.60;;;13.20;94.50;;;;;;5032695;28;20075;-75
2021/01/29 12:52:21;;;;;;;8.63;1.80;;;13.30;94.90;;;;;;5032608;28;20593;-75
2021/01/29 12:55:14;;;;;;;8.80;1.90;;;13.20;94.90;;;;;;5032781;28;20041;-75
2021/01/29 12:57:40;;;;;;;5.18;1.58;;;13.20;94.50;;;;;;5031481;28;20038;-75
2021/01/29 13:00:28;;;;;;;7.68;1.65;;;13.20;95.10;;;;;;5033071;28;20400;-75
2021/01/29 13:03:28;;;;;;;6.85;1.40;;;13.20;94.80;;;;;;5032371;28;20492;-75
2021/01/29 13:05:56;;;;;;;6.30;1.30;;;13.20;94.10;;;;;;5031854;28;20037;-75
2021/01/29 13:08:28;;;;;;;4.22;1.60;;;13.10;95.20;;;;;;5032464;28;20072;-75
2021/01/29 13:10:57;;;;;;;7.47;1.90;;;13.20;94.90;;;;;;5032024;28;20037;-75
2021/01/29 13:13:45;;;;;;;6.32;1.58;;;13.20;95.10;;;;;;5031591;28;20061;-75
2021/01/29 13:16:22;;;;;;;9.70;1.80;;;13.10;95.20;;;;;;5032545;28;20034;-75
2021/01/29 13:19:02;;;;;;;8.88;2.35;;;13.20;94.50;;;;;;5031951;28;20041;-75
2021/01/29 13:21:35;;;;;;;9.02;2.03;;;13.10;95.80;;;;;;5031974;28;20041;-75
2021/01/29 13:24:06;;;;;;;11.07;2.33;;;13.10;95.20;;;;;;5032039;28;20087;-75
2021/01/29 13:26:50;;;;;;;10.45;2.20;;;13.10;95.00;;;;;;5031771;28;20034;-75
2021/01/29 13:29:30;;;;;;;8.60;2.30;;;13.20;95.60;;;;;;5033183;28;20046;-75
2021/01/29 13:32:34;;;;;;;7.90;1.70;;;13.20;95.10;;;;;;5033521;28;20088;-75
2021/01/29 13:35:06;;;;;;;10.07;2.03;;;13.10;94.20;;;;;;5033186;28;20044;-75
2021/01/29 13:37:32;;;;;;;7.38;1.98;;;13.10;94.30;;;;;;5034977;28;20049;-75
2021/01/29 13:40:12;;;;;;;9.15;2.10;;;13.10;94.80;;;;;;5034653;28;20050;-75
2021/01/29 13:42:41;;;;;;;6.68;1.80;;;13.10;94.60;;;;;;5034356;28;20040;-75
2021/01/29 13:45:28;;;;;;;7.40;1.70;;;13.10;94.60;;;;;;5034497;28;20064;-75
2021/01/29 13:48:21;;;;;;;7.15;1.20;;;13.00;94.70;;;;;;5034272;28;20080;-75
2021/01/29 13:50:52;;;;;;;9.93;3.20;;;13.00;92.30;;;;;;5033436;28;20040;-75
2021/01/29 13:53:27;;;;;;;;;;;13.10;94.00;;;;;;5034835;28;20112;-74
2021/01/29 13:56:00;;;;;;;6.30;1.63;;;13.10;95.40;;;;;;5034137;28;20032;-75